sensor_id;sensor_type;location;lat;lon;timestamp;temperature;humidity
64226;DHT22;50545;56.064;26.178;2024-01-16T00:00:52;-1.50;99.90
64226;DHT22;50545;56.064;26.178;2024-01-16T00:03:20;-1.50;99.90
64226;DHT22;50545;56.064;26.178;2024-01-16T00:05:47;-1.50;99.90
64226;DHT22;50545;56.064;26.178;2024-01-16T00:08:16;-1.50;99.90
64226;DHT22;50545;56.064;26.178;2024-01-16T00:10:43;-1.50;99.90
64226;DHT22;50545;56.064;26.178;2024-01-16T00:13:10;-1.50;99.90
64226;DHT22;50545;56.064;26.178;2024-01-16T00:15:38;-1.40;99.90
64226;DHT22;50545;56.064;26.178;2024-01-16T00:18:09;-1.40;99.90
64226;DHT22;50545;56.064;26.178;2024-01-16T00:20:37;-1.40;99.90
64226;DHT22;50545;56.064;26.178;2024-01-16T00:23:04;-1.40;99.90
64226;DHT22;50545;56.064;26.178;2024-01-16T00:25:31;-1.40;99.90
64226;DHT22;50545;56.064;26.178;2024-01-16T00:27:59;-1.40;99.90
64226;DHT22;50545;56.064;26.178;2024-01-16T00:30:26;-1.40;99.90
64226;DHT22;50545;56.064;26.178;2024-01-16T00:32:54;-1.40;99.90
64226;DHT22;50545;56.064;26.178;2024-01-16T00:35:21;-1.40;99.90
64226;DHT22;50545;56.064;26.178;2024-01-16T00:37:49;-1.40;99.90
64226;DHT22;50545;56.064;26.178;2024-01-16T00:40:17;-1.40;99.90
64226;DHT22;50545;56.064;26.178;2024-01-16T00:42:44;-1.40;99.90
64226;DHT22;50545;56.064;26.178;2024-01-16T00:45:11;-1.40;99.90
64226;DHT22;50545;56.064;26.178;2024-01-16T00:47:39;-1.40;99.90
64226;DHT22;50545;56.064;26.178;2024-01-16T00:50:06;-1.40;99.90
64226;DHT22;50545;56.064;26.178;2024-01-16T00:52:34;-1.40;99.90
64226;DHT22;50545;56.064;26.178;2024-01-16T00:55:01;-1.30;99.90
64226;DHT22;50545;56.064;26.178;2024-01-16T00:57:30;-1.40;99.90
64226;DHT22;50545;56.064;26.178;2024-01-16T00:59:57;-1.40;99.90
64226;DHT22;50545;56.064;26.178;2024-01-16T01:02:25;-1.30;99.90
64226;DHT22;50545;56.064;26.178;2024-01-16T01:04:53;-1.30;99.90
64226;DHT22;50545;56.064;26.178;2024-01-16T01:07:20;-1.30;99.90
64226;DHT22;50545;56.064;26.178;2024-01-16T01:09:48;-1.30;99.90
64226;DHT22;50545;56.064;26.178;2024-01-16T01:12:15;-1.30;99.90
64226;DHT22;50545;56.064;26.178;2024-01-16T01:14:42;-1.40;99.90
64226;DHT22;50545;56.064;26.178;2024-01-16T01:17:10;-1.30;99.90
64226;DHT22;50545;56.064;26.178;2024-01-16T01:19:38;-1.40;99.90
64226;DHT22;50545;56.064;26.178;2024-01-16T01:22:06;-1.40;99.90
64226;DHT22;50545;56.064;26.178;2024-01-16T01:24:33;-1.40;99.90
64226;DHT22;50545;56.064;26.178;2024-01-16T01:27:01;-1.40;99.90
64226;DHT22;50545;56.064;26.178;2024-01-16T01:29:28;-1.40;99.90
64226;DHT22;50545;56.064;26.178;2024-01-16T01:31:56;-1.40;99.90
64226;DHT22;50545;56.064;26.178;2024-01-16T01:34:24;-1.40;99.90
64226;DHT22;50545;56.064;26.178;2024-01-16T01:36:51;-1.40;99.90
64226;DHT22;50545;56.064;26.178;2024-01-16T01:39:19;-1.40;99.90
64226;DHT22;50545;56.064;26.178;2024-01-16T01:41:46;-1.40;99.90
64226;DHT22;50545;56.064;26.178;2024-01-16T01:44:14;-1.40;99.90
64226;DHT22;50545;56.064;26.178;2024-01-16T01:46:43;-1.40;99.90
64226;DHT22;50545;56.064;26.178;2024-01-16T01:49:13;-1.50;99.90
64226;DHT22;50545;56.064;26.178;2024-01-16T01:51:43;-1.40;99.90
64226;DHT22;50545;56.064;26.178;2024-01-16T01:54:11;-1.40;99.90
64226;DHT22;50545;56.064;26.178;2024-01-16T01:56:41;-1.40;99.90
64226;DHT22;50545;56.064;26.178;2024-01-16T01:59:10;-1.40;99.90
64226;DHT22;50545;56.064;26.178;2024-01-16T02:01:38;-1.40;99.90
64226;DHT22;50545;56.064;26.178;2024-01-16T02:04:06;-1.50;99.90
64226;DHT22;50545;56.064;26.178;2024-01-16T02:06:36;-1.40;99.90
64226;DHT22;50545;56.064;26.178;2024-01-16T02:09:03;-1.40;99.90
64226;DHT22;50545;56.064;26.178;2024-01-16T02:11:34;-1.40;99.90
64226;DHT22;50545;56.064;26.178;2024-01-16T02:14:01;-1.40;99.90
64226;DHT22;50545;56.064;26.178;2024-01-16T02:16:38;-1.40;99.90
64226;DHT22;50545;56.064;26.178;2024-01-16T02:19:07;-1.40;99.90
64226;DHT22;50545;56.064;26.178;2024-01-16T02:21:46;-1.50;99.90
64226;DHT22;50545;56.064;26.178;2024-01-16T02:24:18;-1.40;99.90
64226;DHT22;50545;56.064;26.178;2024-01-16T02:26:46;-1.40;99.90
64226;DHT22;50545;56.064;26.178;2024-01-16T02:29:14;-1.40;99.90
64226;DHT22;50545;56.064;26.178;2024-01-16T02:31:43;-1.40;99.90
64226;DHT22;50545;56.064;26.178;2024-01-16T02:34:11;-1.50;99.90
64226;DHT22;50545;56.064;26.178;2024-01-16T02:36:38;-1.40;99.90
64226;DHT22;50545;56.064;26.178;2024-01-16T02:39:06;-1.40;99.90
64226;DHT22;50545;56.064;26.178;2024-01-16T02:41:33;-1.40;99.90
64226;DHT22;50545;56.064;26.178;2024-01-16T02:44:01;-1.40;99.90
64226;DHT22;50545;56.064;26.178;2024-01-16T02:46:29;-1.50;99.90
64226;DHT22;50545;56.064;26.178;2024-01-16T02:48:56;-1.50;99.90
64226;DHT22;50545;56.064;26.178;2024-01-16T02:51:24;-1.50;99.90
64226;DHT22;50545;56.064;26.178;2024-01-16T02:53:51;-1.50;99.90
64226;DHT22;50545;56.064;26.178;2024-01-16T02:56:19;-1.50;99.90
64226;DHT22;50545;56.064;26.178;2024-01-16T02:58:46;-1.60;99.90
64226;DHT22;50545;56.064;26.178;2024-01-16T03:01:14;-1.60;99.90
64226;DHT22;50545;56.064;26.178;2024-01-16T03:03:42;-1.60;99.90
64226;DHT22;50545;56.064;26.178;2024-01-16T03:06:10;-1.60;99.90
64226;DHT22;50545;56.064;26.178;2024-01-16T03:08:48;-1.60;99.90
64226;DHT22;50545;56.064;26.178;2024-01-16T03:11:16;-1.60;99.90
64226;DHT22;50545;56.064;26.178;2024-01-16T03:13:44;-1.60;99.90
64226;DHT22;50545;56.064;26.178;2024-01-16T03:16:12;-1.60;99.90
64226;DHT22;50545;56.064;26.178;2024-01-16T03:18:40;-1.60;99.90
64226;DHT22;50545;56.064;26.178;2024-01-16T03:21:08;-1.60;99.90
64226;DHT22;50545;56.064;26.178;2024-01-16T03:23:35;-1.50;99.90
64226;DHT22;50545;56.064;26.178;2024-01-16T03:26:03;-1.50;99.90
64226;DHT22;50545;56.064;26.178;2024-01-16T03:28:31;-1.50;99.90
64226;DHT22;50545;56.064;26.178;2024-01-16T03:30:58;-1.40;99.90
64226;DHT22;50545;56.064;26.178;2024-01-16T03:33:26;-1.40;99.90
64226;DHT22;50545;56.064;26.178;2024-01-16T03:35:54;-1.40;99.90
64226;DHT22;50545;56.064;26.178;2024-01-16T03:38:21;-1.40;99.90
64226;DHT22;50545;56.064;26.178;2024-01-16T03:40:49;-1.40;99.90
64226;DHT22;50545;56.064;26.178;2024-01-16T03:43:17;-1.40;99.90
64226;DHT22;50545;56.064;26.178;2024-01-16T03:45:44;-1.40;99.90
64226;DHT22;50545;56.064;26.178;2024-01-16T03:48:12;-1.30;99.90
64226;DHT22;50545;56.064;26.178;2024-01-16T03:50:39;-1.30;99.90
64226;DHT22;50545;56.064;26.178;2024-01-16T03:53:11;-1.30;99.90
64226;DHT22;50545;56.064;26.178;2024-01-16T03:55:38;-1.30;99.90
64226;DHT22;50545;56.064;26.178;2024-01-16T03:58:06;-1.30;99.90
64226;DHT22;50545;56.064;26.178;2024-01-16T04:00:39;-1.30;99.90
64226;DHT22;50545;56.064;26.178;2024-01-16T04:03:06;-1.30;99.90
64226;DHT22;50545;56.064;26.178;2024-01-16T04:05:34;-1.30;99.90
64226;DHT22;50545;56.064;26.178;2024-01-16T04:08:02;-1.40;99.90
64226;DHT22;50545;56.064;26.178;2024-01-16T04:10:30;-1.40;99.90
64226;DHT22;50545;56.064;26.178;2024-01-16T04:13:00;-1.40;99.90
64226;DHT22;50545;56.064;26.178;2024-01-16T04:15:30;-1.40;99.90
64226;DHT22;50545;56.064;26.178;2024-01-16T04:17:57;-1.60;99.90
64226;DHT22;50545;56.064;26.178;2024-01-16T04:20:25;-1.60;99.90
64226;DHT22;50545;56.064;26.178;2024-01-16T04:22:53;-1.80;99.90
64226;DHT22;50545;56.064;26.178;2024-01-16T04:25:20;-2.00;99.90
64226;DHT22;50545;56.064;26.178;2024-01-16T04:27:48;-2.20;99.90
64226;DHT22;50545;56.064;26.178;2024-01-16T04:30:15;-2.30;99.90
64226;DHT22;50545;56.064;26.178;2024-01-16T04:32:43;-2.50;99.90
64226;DHT22;50545;56.064;26.178;2024-01-16T04:35:11;-2.70;99.90
64226;DHT22;50545;56.064;26.178;2024-01-16T04:37:38;-2.90;99.90
64226;DHT22;50545;56.064;26.178;2024-01-16T04:40:06;-3.10;99.90
64226;DHT22;50545;56.064;26.178;2024-01-16T04:42:33;-3.30;99.90
64226;DHT22;50545;56.064;26.178;2024-01-16T04:45:01;-3.40;99.90
64226;DHT22;50545;56.064;26.178;2024-01-16T04:47:29;-3.50;99.90
64226;DHT22;50545;56.064;26.178;2024-01-16T04:49:56;-3.60;99.90
64226;DHT22;50545;56.064;26.178;2024-01-16T04:52:24;-3.60;99.90
64226;DHT22;50545;56.064;26.178;2024-01-16T04:54:51;-3.70;99.90
64226;DHT22;50545;56.064;26.178;2024-01-16T04:57:20;-3.70;99.90
64226;DHT22;50545;56.064;26.178;2024-01-16T04:59:47;-3.70;99.90
64226;DHT22;50545;56.064;26.178;2024-01-16T05:02:15;-3.70;99.90
64226;DHT22;50545;56.064;26.178;2024-01-16T05:04:44;-3.70;99.90
64226;DHT22;50545;56.064;26.178;2024-01-16T05:07:12;-3.70;99.90
64226;DHT22;50545;56.064;26.178;2024-01-16T05:09:39;-3.80;99.90
64226;DHT22;50545;56.064;26.178;2024-01-16T05:12:07;-3.80;99.90
64226;DHT22;50545;56.064;26.178;2024-01-16T05:14:34;-3.80;99.90
64226;DHT22;50545;56.064;26.178;2024-01-16T05:17:02;-3.90;99.90
64226;DHT22;50545;56.064;26.178;2024-01-16T05:19:30;-3.90;99.90
64226;DHT22;50545;56.064;26.178;2024-01-16T05:21:57;-3.90;99.90
64226;DHT22;50545;56.064;26.178;2024-01-16T05:24:25;-4.00;99.90
64226;DHT22;50545;56.064;26.178;2024-01-16T05:26:52;-4.00;99.90
64226;DHT22;50545;56.064;26.178;2024-01-16T05:29:20;-4.10;99.90
64226;DHT22;50545;56.064;26.178;2024-01-16T05:31:48;-4.10;99.90
64226;DHT22;50545;56.064;26.178;2024-01-16T05:34:15;-4.20;99.90
64226;DHT22;50545;56.064;26.178;2024-01-16T05:36:44;-4.20;99.90
64226;DHT22;50545;56.064;26.178;2024-01-16T05:39:11;-4.30;99.90
64226;DHT22;50545;56.064;26.178;2024-01-16T05:41:39;-4.40;99.90
64226;DHT22;50545;56.064;26.178;2024-01-16T05:44:06;-4.40;99.90
64226;DHT22;50545;56.064;26.178;2024-01-16T05:46:34;-4.40;99.90
64226;DHT22;50545;56.064;26.178;2024-01-16T05:49:01;-4.50;99.90
64226;DHT22;50545;56.064;26.178;2024-01-16T05:51:29;-4.50;99.90
64226;DHT22;50545;56.064;26.178;2024-01-16T05:53:57;-4.60;99.90
64226;DHT22;50545;56.064;26.178;2024-01-16T05:56:26;-4.60;99.90
64226;DHT22;50545;56.064;26.178;2024-01-16T05:58:53;-4.70;99.90
64226;DHT22;50545;56.064;26.178;2024-01-16T06:01:21;-4.70;99.90
64226;DHT22;50545;56.064;26.178;2024-01-16T06:03:48;-4.80;99.90
64226;DHT22;50545;56.064;26.178;2024-01-16T06:06:16;-4.80;99.90
64226;DHT22;50545;56.064;26.178;2024-01-16T06:08:44;-4.90;99.90
64226;DHT22;50545;56.064;26.178;2024-01-16T06:11:12;-5.00;99.90
64226;DHT22;50545;56.064;26.178;2024-01-16T06:13:41;-5.10;99.90
64226;DHT22;50545;56.064;26.178;2024-01-16T06:16:08;-5.10;99.90
64226;DHT22;50545;56.064;26.178;2024-01-16T06:18:36;-5.10;99.90
64226;DHT22;50545;56.064;26.178;2024-01-16T06:21:04;-5.20;99.90
64226;DHT22;50545;56.064;26.178;2024-01-16T06:23:32;-5.20;99.90
64226;DHT22;50545;56.064;26.178;2024-01-16T06:26:00;-5.30;99.90
64226;DHT22;50545;56.064;26.178;2024-01-16T06:28:27;-5.30;99.90
64226;DHT22;50545;56.064;26.178;2024-01-16T06:30:55;-5.30;99.90
64226;DHT22;50545;56.064;26.178;2024-01-16T06:33:22;-5.30;99.90
64226;DHT22;50545;56.064;26.178;2024-01-16T06:35:50;-5.40;99.90
64226;DHT22;50545;56.064;26.178;2024-01-16T06:38:20;-5.40;99.90
64226;DHT22;50545;56.064;26.178;2024-01-16T06:40:47;-5.50;99.90
64226;DHT22;50545;56.064;26.178;2024-01-16T06:43:15;-5.60;99.90
64226;DHT22;50545;56.064;26.178;2024-01-16T06:45:43;-5.70;99.90
64226;DHT22;50545;56.064;26.178;2024-01-16T06:48:11;-5.70;99.90
64226;DHT22;50545;56.064;26.178;2024-01-16T06:50:39;-5.80;99.90
64226;DHT22;50545;56.064;26.178;2024-01-16T06:53:06;-5.80;99.90
64226;DHT22;50545;56.064;26.178;2024-01-16T06:55:34;-5.80;99.90
64226;DHT22;50545;56.064;26.178;2024-01-16T06:58:01;-5.90;99.90
64226;DHT22;50545;56.064;26.178;2024-01-16T07:00:29;-5.90;99.90
64226;DHT22;50545;56.064;26.178;2024-01-16T07:02:57;-5.90;99.90
64226;DHT22;50545;56.064;26.178;2024-01-16T07:05:25;-6.00;99.90
64226;DHT22;50545;56.064;26.178;2024-01-16T07:07:52;-6.00;99.90
64226;DHT22;50545;56.064;26.178;2024-01-16T07:10:20;-6.00;99.90
64226;DHT22;50545;56.064;26.178;2024-01-16T07:12:49;-6.10;99.90
64226;DHT22;50545;56.064;26.178;2024-01-16T07:15:19;-6.10;99.90
64226;DHT22;50545;56.064;26.178;2024-01-16T07:17:46;-6.10;99.90
64226;DHT22;50545;56.064;26.178;2024-01-16T07:20:14;-6.10;99.90
64226;DHT22;50545;56.064;26.178;2024-01-16T07:22:41;-6.10;99.90
64226;DHT22;50545;56.064;26.178;2024-01-16T07:25:09;-6.20;99.90
64226;DHT22;50545;56.064;26.178;2024-01-16T07:27:36;-6.10;99.90
64226;DHT22;50545;56.064;26.178;2024-01-16T07:30:04;-6.10;99.90
64226;DHT22;50545;56.064;26.178;2024-01-16T07:32:33;-6.10;99.90
64226;DHT22;50545;56.064;26.178;2024-01-16T07:35:02;-6.10;99.90
64226;DHT22;50545;56.064;26.178;2024-01-16T07:37:31;-6.10;99.90
64226;DHT22;50545;56.064;26.178;2024-01-16T07:39:59;-6.10;99.90
64226;DHT22;50545;56.064;26.178;2024-01-16T07:42:27;-6.20;99.90
64226;DHT22;50545;56.064;26.178;2024-01-16T07:45:03;-6.20;99.90
64226;DHT22;50545;56.064;26.178;2024-01-16T07:47:32;-6.20;99.90
64226;DHT22;50545;56.064;26.178;2024-01-16T07:50:00;-6.30;99.90
64226;DHT22;50545;56.064;26.178;2024-01-16T07:52:33;-6.30;99.90
64226;DHT22;50545;56.064;26.178;2024-01-16T07:55:00;-6.40;99.90
64226;DHT22;50545;56.064;26.178;2024-01-16T07:57:28;-6.40;99.90
64226;DHT22;50545;56.064;26.178;2024-01-16T07:59:55;-6.40;99.90
64226;DHT22;50545;56.064;26.178;2024-01-16T08:02:31;-6.50;99.90
64226;DHT22;50545;56.064;26.178;2024-01-16T08:04:58;-6.40;99.90
64226;DHT22;50545;56.064;26.178;2024-01-16T08:07:27;-6.50;99.90
64226;DHT22;50545;56.064;26.178;2024-01-16T08:09:54;-6.50;99.90
64226;DHT22;50545;56.064;26.178;2024-01-16T08:12:21;-6.60;99.90
64226;DHT22;50545;56.064;26.178;2024-01-16T08:14:48;-6.60;99.90
64226;DHT22;50545;56.064;26.178;2024-01-16T08:17:16;-6.60;99.90
64226;DHT22;50545;56.064;26.178;2024-01-16T08:19:43;-6.60;99.90
64226;DHT22;50545;56.064;26.178;2024-01-16T08:22:10;-6.60;99.90
64226;DHT22;50545;56.064;26.178;2024-01-16T08:24:37;-6.60;99.90
64226;DHT22;50545;56.064;26.178;2024-01-16T08:27:04;-6.70;99.90
64226;DHT22;50545;56.064;26.178;2024-01-16T08:29:31;-6.60;99.90
64226;DHT22;50545;56.064;26.178;2024-01-16T08:31:59;-6.70;99.90
64226;DHT22;50545;56.064;26.178;2024-01-16T08:34:26;-6.70;99.90
64226;DHT22;50545;56.064;26.178;2024-01-16T08:36:53;-6.60;99.90
64226;DHT22;50545;56.064;26.178;2024-01-16T08:39:24;-6.60;99.90
64226;DHT22;50545;56.064;26.178;2024-01-16T08:41:51;-6.70;99.90
64226;DHT22;50545;56.064;26.178;2024-01-16T08:44:18;-6.70;99.90
64226;DHT22;50545;56.064;26.178;2024-01-16T08:46:45;-6.70;99.90
64226;DHT22;50545;56.064;26.178;2024-01-16T08:49:13;-6.70;99.90
64226;DHT22;50545;56.064;26.178;2024-01-16T08:51:46;-6.70;99.90
64226;DHT22;50545;56.064;26.178;2024-01-16T08:54:13;-6.60;99.90
64226;DHT22;50545;56.064;26.178;2024-01-16T08:56:41;-6.60;99.90
64226;DHT22;50545;56.064;26.178;2024-01-16T08:59:08;-6.60;99.90
64226;DHT22;50545;56.064;26.178;2024-01-16T09:01:37;-6.60;99.90
64226;DHT22;50545;56.064;26.178;2024-01-16T09:04:04;-6.60;99.90
64226;DHT22;50545;56.064;26.178;2024-01-16T09:06:31;-6.70;99.90
64226;DHT22;50545;56.064;26.178;2024-01-16T09:08:59;-6.70;99.90
64226;DHT22;50545;56.064;26.178;2024-01-16T09:11:26;-6.70;99.90
64226;DHT22;50545;56.064;26.178;2024-01-16T09:13:54;-6.70;99.90
64226;DHT22;50545;56.064;26.178;2024-01-16T09:16:21;-6.70;99.90
64226;DHT22;50545;56.064;26.178;2024-01-16T09:18:48;-6.70;99.90
64226;DHT22;50545;56.064;26.178;2024-01-16T09:21:16;-6.70;99.90
64226;DHT22;50545;56.064;26.178;2024-01-16T09:23:43;-6.70;99.90
64226;DHT22;50545;56.064;26.178;2024-01-16T09:26:11;-6.70;99.90
64226;DHT22;50545;56.064;26.178;2024-01-16T09:28:38;-6.70;99.90
64226;DHT22;50545;56.064;26.178;2024-01-16T09:31:06;-6.70;99.90
64226;DHT22;50545;56.064;26.178;2024-01-16T09:33:34;-6.70;99.90
64226;DHT22;50545;56.064;26.178;2024-01-16T09:36:02;-6.70;99.90
64226;DHT22;50545;56.064;26.178;2024-01-16T09:38:29;-6.70;99.90
64226;DHT22;50545;56.064;26.178;2024-01-16T09:40:58;-6.70;99.90
64226;DHT22;50545;56.064;26.178;2024-01-16T09:43:30;-6.70;99.90
64226;DHT22;50545;56.064;26.178;2024-01-16T09:46:01;-6.80;99.90
64226;DHT22;50545;56.064;26.178;2024-01-16T09:48:30;-6.80;99.90
64226;DHT22;50545;56.064;26.178;2024-01-16T09:50:59;-6.80;99.90
64226;DHT22;50545;56.064;26.178;2024-01-16T09:53:27;-6.80;99.90
64226;DHT22;50545;56.064;26.178;2024-01-16T09:55:55;-6.80;99.90
64226;DHT22;50545;56.064;26.178;2024-01-16T09:58:24;-6.80;99.90
64226;DHT22;50545;56.064;26.178;2024-01-16T10:00:53;-6.80;99.90
64226;DHT22;50545;56.064;26.178;2024-01-16T10:03:21;-6.80;99.90
64226;DHT22;50545;56.064;26.178;2024-01-16T10:05:49;-6.80;99.90
64226;DHT22;50545;56.064;26.178;2024-01-16T10:08:16;-6.80;99.90
64226;DHT22;50545;56.064;26.178;2024-01-16T10:10:48;-6.80;99.90
64226;DHT22;50545;56.064;26.178;2024-01-16T10:13:18;-6.80;99.90
64226;DHT22;50545;56.064;26.178;2024-01-16T10:15:50;-6.80;99.90
64226;DHT22;50545;56.064;26.178;2024-01-16T10:18:29;-6.90;99.90
64226;DHT22;50545;56.064;26.178;2024-01-16T10:20:57;-6.90;99.90
64226;DHT22;50545;56.064;26.178;2024-01-16T10:23:30;-6.90;99.90
64226;DHT22;50545;56.064;26.178;2024-01-16T10:26:11;-6.90;99.90
64226;DHT22;50545;56.064;26.178;2024-01-16T10:28:40;-6.90;99.90
64226;DHT22;50545;56.064;26.178;2024-01-16T10:31:12;-6.90;99.90
64226;DHT22;50545;56.064;26.178;2024-01-16T10:33:41;-6.90;99.90
64226;DHT22;50545;56.064;26.178;2024-01-16T10:38:40;-6.90;99.90
64226;DHT22;50545;56.064;26.178;2024-01-16T10:41:13;-6.90;99.90
64226;DHT22;50545;56.064;26.178;2024-01-16T10:43:41;-6.90;99.90
64226;DHT22;50545;56.064;26.178;2024-01-16T10:48:36;-7.00;99.90
64226;DHT22;50545;56.064;26.178;2024-01-16T10:51:06;-7.00;99.90
64226;DHT22;50545;56.064;26.178;2024-01-16T10:53:34;-6.90;99.90
64226;DHT22;50545;56.064;26.178;2024-01-16T10:56:02;-7.00;99.90
64226;DHT22;50545;56.064;26.178;2024-01-16T10:58:32;-6.90;99.90
64226;DHT22;50545;56.064;26.178;2024-01-16T11:01:03;-6.90;99.90
64226;DHT22;50545;56.064;26.178;2024-01-16T11:03:38;-6.90;99.90
64226;DHT22;50545;56.064;26.178;2024-01-16T11:06:07;-6.90;99.90
64226;DHT22;50545;56.064;26.178;2024-01-16T11:08:39;-6.90;99.90
64226;DHT22;50545;56.064;26.178;2024-01-16T11:11:08;-6.90;99.90
64226;DHT22;50545;56.064;26.178;2024-01-16T11:13:36;-6.90;99.90
64226;DHT22;50545;56.064;26.178;2024-01-16T11:16:04;-6.90;99.90
64226;DHT22;50545;56.064;26.178;2024-01-16T11:18:33;-6.80;99.90
64226;DHT22;50545;56.064;26.178;2024-01-16T11:21:10;-6.70;99.90
64226;DHT22;50545;56.064;26.178;2024-01-16T11:23:44;-6.60;99.90
64226;DHT22;50545;56.064;26.178;2024-01-16T11:29:33;-6.50;99.90
64226;DHT22;50545;56.064;26.178;2024-01-16T11:31:48;-6.50;99.90
64226;DHT22;50545;56.064;26.178;2024-01-16T11:37:13;-6.70;99.90
64226;DHT22;50545;56.064;26.178;2024-01-16T11:39:40;-6.80;99.90
64226;DHT22;50545;56.064;26.178;2024-01-16T11:42:08;-6.80;99.90
64226;DHT22;50545;56.064;26.178;2024-01-16T11:47:23;-6.90;99.90
64226;DHT22;50545;56.064;26.178;2024-01-16T11:49:52;-7.00;99.90
64226;DHT22;50545;56.064;26.178;2024-01-16T11:52:46;-7.00;99.90
64226;DHT22;50545;56.064;26.178;2024-01-16T11:55:31;-7.00;99.90
64226;DHT22;50545;56.064;26.178;2024-01-16T11:58:20;-7.00;99.90
64226;DHT22;50545;56.064;26.178;2024-01-16T12:00:53;-7.10;99.90
64226;DHT22;50545;56.064;26.178;2024-01-16T12:03:22;-7.10;99.90
64226;DHT22;50545;56.064;26.178;2024-01-16T12:06:01;-7.20;99.90
64226;DHT22;50545;56.064;26.178;2024-01-16T12:08:31;-7.20;99.90
64226;DHT22;50545;56.064;26.178;2024-01-16T12:10:58;-7.30;99.90
64226;DHT22;50545;56.064;26.178;2024-01-16T12:13:26;-7.30;99.90
64226;DHT22;50545;56.064;26.178;2024-01-16T12:16:06;-7.30;99.90
64226;DHT22;50545;56.064;26.178;2024-01-16T12:18:34;-7.40;99.90
64226;DHT22;50545;56.064;26.178;2024-01-16T12:21:11;-7.40;99.90
64226;DHT22;50545;56.064;26.178;2024-01-16T12:23:39;-7.50;99.90
64226;DHT22;50545;56.064;26.178;2024-01-16T12:26:21;-7.60;99.90
64226;DHT22;50545;56.064;26.178;2024-01-16T12:28:53;-7.60;99.90
64226;DHT22;50545;56.064;26.178;2024-01-16T12:31:27;-7.60;99.90
64226;DHT22;50545;56.064;26.178;2024-01-16T12:34:15;-7.60;99.90
64226;DHT22;50545;56.064;26.178;2024-01-16T12:36:43;-7.60;99.90
64226;DHT22;50545;56.064;26.178;2024-01-16T12:39:12;-7.70;99.90
64226;DHT22;50545;56.064;26.178;2024-01-16T12:41:44;-7.70;99.90
64226;DHT22;50545;56.064;26.178;2024-01-16T12:44:13;-7.70;99.90
64226;DHT22;50545;56.064;26.178;2024-01-16T12:46:56;-7.70;99.90
64226;DHT22;50545;56.064;26.178;2024-01-16T12:49:24;-7.80;99.90
64226;DHT22;50545;56.064;26.178;2024-01-16T12:52:16;-7.80;99.90
64226;DHT22;50545;56.064;26.178;2024-01-16T12:54:45;-7.80;99.90
64226;DHT22;50545;56.064;26.178;2024-01-16T12:57:19;-7.80;99.90
64226;DHT22;50545;56.064;26.178;2024-01-16T12:59:48;-7.80;99.90
64226;DHT22;50545;56.064;26.178;2024-01-16T13:02:22;-7.80;99.90
64226;DHT22;50545;56.064;26.178;2024-01-16T13:04:59;-7.80;99.90
64226;DHT22;50545;56.064;26.178;2024-01-16T13:07:27;-7.80;99.90
64226;DHT22;50545;56.064;26.178;2024-01-16T13:10:11;-7.80;99.90
64226;DHT22;50545;56.064;26.178;2024-01-16T13:12:39;-7.80;99.90
64226;DHT22;50545;56.064;26.178;2024-01-16T13:15:08;-7.80;99.90
64226;DHT22;50545;56.064;26.178;2024-01-16T13:17:38;-7.80;99.90
64226;DHT22;50545;56.064;26.178;2024-01-16T13:20:06;-7.80;99.90
64226;DHT22;50545;56.064;26.178;2024-01-16T13:22:37;-7.80;99.90
64226;DHT22;50545;56.064;26.178;2024-01-16T13:25:13;-7.80;99.90
64226;DHT22;50545;56.064;26.178;2024-01-16T13:27:41;-7.80;99.90
64226;DHT22;50545;56.064;26.178;2024-01-16T13:30:08;-7.80;99.90
64226;DHT22;50545;56.064;26.178;2024-01-16T13:32:36;-7.80;99.90
64226;DHT22;50545;56.064;26.178;2024-01-16T13:35:05;-7.80;99.90
64226;DHT22;50545;56.064;26.178;2024-01-16T13:37:36;-7.80;99.90
64226;DHT22;50545;56.064;26.178;2024-01-16T13:40:08;-7.90;99.90
64226;DHT22;50545;56.064;26.178;2024-01-16T13:42:38;-7.90;99.90
64226;DHT22;50545;56.064;26.178;2024-01-16T13:45:07;-7.90;99.90
64226;DHT22;50545;56.064;26.178;2024-01-16T13:47:35;-7.90;99.90
64226;DHT22;50545;56.064;26.178;2024-01-16T13:50:07;-7.90;99.90
64226;DHT22;50545;56.064;26.178;2024-01-16T13:52:35;-7.90;99.90
64226;DHT22;50545;56.064;26.178;2024-01-16T13:55:03;-7.80;99.90
64226;DHT22;50545;56.064;26.178;2024-01-16T13:57:33;-7.90;99.90
64226;DHT22;50545;56.064;26.178;2024-01-16T14:00:08;-7.90;99.90
64226;DHT22;50545;56.064;26.178;2024-01-16T14:02:43;-7.80;99.90
64226;DHT22;50545;56.064;26.178;2024-01-16T14:05:11;-7.90;99.90
64226;DHT22;50545;56.064;26.178;2024-01-16T14:07:46;-7.90;99.90
64226;DHT22;50545;56.064;26.178;2024-01-16T14:10:14;-7.90;99.90
64226;DHT22;50545;56.064;26.178;2024-01-16T14:12:43;-7.90;99.90
64226;DHT22;50545;56.064;26.178;2024-01-16T14:15:12;-7.90;99.90
64226;DHT22;50545;56.064;26.178;2024-01-16T14:17:51;-7.90;99.90
64226;DHT22;50545;56.064;26.178;2024-01-16T14:20:20;-7.90;99.90
64226;DHT22;50545;56.064;26.178;2024-01-16T14:22:53;-7.90;99.90
64226;DHT22;50545;56.064;26.178;2024-01-16T14:25:22;-7.90;99.90
64226;DHT22;50545;56.064;26.178;2024-01-16T14:28:03;-7.90;99.90
64226;DHT22;50545;56.064;26.178;2024-01-16T14:30:32;-8.00;99.90
64226;DHT22;50545;56.064;26.178;2024-01-16T14:33:00;-8.00;99.90
64226;DHT22;50545;56.064;26.178;2024-01-16T14:35:28;-8.00;99.90
64226;DHT22;50545;56.064;26.178;2024-01-16T14:37:56;-8.00;99.90
64226;DHT22;50545;56.064;26.178;2024-01-16T14:40:23;-8.00;99.90
64226;DHT22;50545;56.064;26.178;2024-01-16T14:42:55;-8.00;99.90
64226;DHT22;50545;56.064;26.178;2024-01-16T14:45:26;-8.00;99.90
64226;DHT22;50545;56.064;26.178;2024-01-16T14:47:54;-8.00;99.90
64226;DHT22;50545;56.064;26.178;2024-01-16T14:50:23;-8.10;99.90
64226;DHT22;50545;56.064;26.178;2024-01-16T14:52:52;-8.10;99.90
64226;DHT22;50545;56.064;26.178;2024-01-16T14:55:19;-8.10;99.80
64226;DHT22;50545;56.064;26.178;2024-01-16T14:57:52;-8.20;99.50
64226;DHT22;50545;56.064;26.178;2024-01-16T15:00:22;-8.20;99.50
64226;DHT22;50545;56.064;26.178;2024-01-16T15:02:54;-8.20;99.20
64226;DHT22;50545;56.064;26.178;2024-01-16T15:05:22;-8.30;99.20
64226;DHT22;50545;56.064;26.178;2024-01-16T15:07:50;-8.30;99.00
64226;DHT22;50545;56.064;26.178;2024-01-16T15:10:20;-8.30;99.00
64226;DHT22;50545;56.064;26.178;2024-01-16T15:12:48;-8.40;99.10
64226;DHT22;50545;56.064;26.178;2024-01-16T15:15:15;-8.40;99.20
64226;DHT22;50545;56.064;26.178;2024-01-16T15:17:43;-8.40;99.40
64226;DHT22;50545;56.064;26.178;2024-01-16T15:20:11;-8.40;99.30
64226;DHT22;50545;56.064;26.178;2024-01-16T15:22:43;-8.50;99.30
64226;DHT22;50545;56.064;26.178;2024-01-16T15:25:13;-8.50;99.60
64226;DHT22;50545;56.064;26.178;2024-01-16T15:27:43;-8.50;99.80
64226;DHT22;50545;56.064;26.178;2024-01-16T15:30:11;-8.50;99.80
64226;DHT22;50545;56.064;26.178;2024-01-16T15:32:41;-8.50;99.80
64226;DHT22;50545;56.064;26.178;2024-01-16T15:35:08;-8.60;99.90
64226;DHT22;50545;56.064;26.178;2024-01-16T15:37:35;-8.60;99.90
64226;DHT22;50545;56.064;26.178;2024-01-16T15:40:03;-8.60;99.90